sensor_id;sensor_type;location;lat;lon;timestamp;pressure;altitude;pressure_sealevel;temperature;humidity
18918;BME280;9591;52.742;13.650;2023-01-27T00:00:19;101749.03;;;-0.02;100.00
18918;BME280;9591;52.742;13.650;2023-01-27T00:03:05;101755.28;;;0.07;100.00
18918;BME280;9591;52.742;13.650;2023-01-27T00:05:53;101757.94;;;0.08;100.00
18918;BME280;9591;52.742;13.650;2023-01-27T00:08:40;101758.31;;;0.22;100.00
18918;BME280;9591;52.742;13.650;2023-01-27T00:11:28;101755.47;;;0.13;100.00
18918;BME280;9591;52.742;13.650;2023-01-27T00:14:32;101751.03;;;0.10;100.00
18918;BME280;9591;52.742;13.650;2023-01-27T00:17:19;101753.78;;;0.15;100.00
18918;BME280;9591;52.742;13.650;2023-01-27T00:20:07;101747.59;;;0.11;100.00
18918;BME280;9591;52.742;13.650;2023-01-27T00:22:55;101750.03;;;0.05;100.00
18918;BME280;9591;52.742;13.650;2023-01-27T00:26:01;101750.50;;;0.22;100.00
18918;BME280;9591;52.742;13.650;2023-01-27T00:28:52;101757.59;;;0.27;100.00
18918;BME280;9591;52.742;13.650;2023-01-27T00:31:39;101760.81;;;0.19;100.00
18918;BME280;9591;52.742;13.650;2023-01-27T00:34:43;101759.75;;;0.11;100.00
18918;BME280;9591;52.742;13.650;2023-01-27T00:37:30;101758.34;;;0.23;100.00
18918;BME280;9591;52.742;13.650;2023-01-27T00:40:16;101763.16;;;0.08;100.00
18918;BME280;9591;52.742;13.650;2023-01-27T00:43:04;101760.38;;;0.02;100.00
18918;BME280;9591;52.742;13.650;2023-01-27T00:45:52;101764.69;;;0.00;100.00
18918;BME280;9591;52.742;13.650;2023-01-27T00:48:39;101761.56;;;0.13;100.00
18918;BME280;9591;52.742;13.650;2023-01-27T00:51:25;101761.97;;;-0.05;100.00
18918;BME280;9591;52.742;13.650;2023-01-27T00:54:12;101772.38;;;-0.05;100.00
18918;BME280;9591;52.742;13.650;2023-01-27T00:57:02;101766.47;;;0.03;100.00
18918;BME280;9591;52.742;13.650;2023-01-27T00:59:49;101768.19;;;0.02;100.00
18918;BME280;9591;52.742;13.650;2023-01-27T01:02:37;101757.50;;;-0.09;100.00
18918;BME280;9591;52.742;13.650;2023-01-27T01:05:24;101772.13;;;0.19;100.00
18918;BME280;9591;52.742;13.650;2023-01-27T01:08:11;101771.69;;;0.03;100.00
18918;BME280;9591;52.742;13.650;2023-01-27T01:10:58;101778.69;;;0.05;100.00
18918;BME280;9591;52.742;13.650;2023-01-27T01:13:45;101768.44;;;0.11;100.00
18918;BME280;9591;52.742;13.650;2023-01-27T01:16:40;101780.91;;;0.23;100.00
18918;BME280;9591;52.742;13.650;2023-01-27T01:19:28;101774.44;;;0.09;100.00
18918;BME280;9591;52.742;13.650;2023-01-27T01:22:15;101777.44;;;0.22;100.00
18918;BME280;9591;52.742;13.650;2023-01-27T01:25:02;101774.88;;;0.24;100.00
18918;BME280;9591;52.742;13.650;2023-01-27T01:27:49;101773.69;;;0.13;100.00
18918;BME280;9591;52.742;13.650;2023-01-27T01:30:36;101783.22;;;0.12;100.00
18918;BME280;9591;52.742;13.650;2023-01-27T01:33:24;101781.56;;;0.14;100.00
18918;BME280;9591;52.742;13.650;2023-01-27T01:36:13;101780.34;;;0.02;100.00
18918;BME280;9591;52.742;13.650;2023-01-27T01:39:03;101782.19;;;0.06;100.00
18918;BME280;9591;52.742;13.650;2023-01-27T01:41:50;101787.81;;;0.21;100.00
18918;BME280;9591;52.742;13.650;2023-01-27T01:44:42;101787.66;;;0.15;100.00
18918;BME280;9591;52.742;13.650;2023-01-27T01:47:29;101786.59;;;0.08;100.00
18918;BME280;9591;52.742;13.650;2023-01-27T01:50:18;101786.84;;;0.17;100.00
18918;BME280;9591;52.742;13.650;2023-01-27T01:53:05;101793.03;;;0.21;100.00
18918;BME280;9591;52.742;13.650;2023-01-27T01:55:52;101786.63;;;0.10;100.00
18918;BME280;9591;52.742;13.650;2023-01-27T01:58:40;101787.47;;;0.09;100.00
18918;BME280;9591;52.742;13.650;2023-01-27T02:01:33;101786.56;;;0.07;100.00
18918;BME280;9591;52.742;13.650;2023-01-27T02:04:22;101783.88;;;0.04;100.00
18918;BME280;9591;52.742;13.650;2023-01-27T02:07:17;101775.13;;;0.02;100.00
18918;BME280;9591;52.742;13.650;2023-01-27T02:10:09;101778.81;;;0.10;100.00
18918;BME280;9591;52.742;13.650;2023-01-27T02:12:57;101779.56;;;0.06;100.00
18918;BME280;9591;52.742;13.650;2023-01-27T02:15:44;101772.84;;;0.14;100.00
18918;BME280;9591;52.742;13.650;2023-01-27T02:18:31;101780.72;;;0.15;100.00
18918;BME280;9591;52.742;13.650;2023-01-27T02:21:19;101633.28;;;-0.76;100.00
18918;BME280;9591;52.742;13.650;2023-01-27T02:24:08;101772.69;;;0.08;100.00
18918;BME280;9591;52.742;13.650;2023-01-27T02:26:58;101773.25;;;0.29;100.00
18918;BME280;9591;52.742;13.650;2023-01-27T02:29:46;101778.47;;;0.29;100.00
18918;BME280;9591;52.742;13.650;2023-01-27T02:32:32;101775.81;;;0.27;100.00
18918;BME280;9591;52.742;13.650;2023-01-27T02:35:23;101781.00;;;0.26;100.00
18918;BME280;9591;52.742;13.650;2023-01-27T02:38:15;101766.81;;;0.15;100.00
18918;BME280;9591;52.742;13.650;2023-01-27T02:41:07;101776.72;;;0.28;100.00
18918;BME280;9591;52.742;13.650;2023-01-27T02:43:57;101781.03;;;0.27;100.00
18918;BME280;9591;52.742;13.650;2023-01-27T02:46:44;101788.91;;;0.29;100.00
18918;BME280;9591;52.742;13.650;2023-01-27T02:49:31;101787.25;;;0.32;100.00
18918;BME280;9591;52.742;13.650;2023-01-27T02:52:19;101786.72;;;0.46;100.00
18918;BME280;9591;52.742;13.650;2023-01-27T02:55:08;101788.28;;;0.39;100.00
18918;BME280;9591;52.742;13.650;2023-01-27T02:57:57;101800.13;;;0.59;100.00
18918;BME280;9591;52.742;13.650;2023-01-27T03:01:00;101803.75;;;0.66;100.00
18918;BME280;9591;52.742;13.650;2023-01-27T03:03:47;101803.59;;;0.60;100.00
18918;BME280;9591;52.742;13.650;2023-01-27T03:06:36;101794.81;;;0.56;100.00
18918;BME280;9591;52.742;13.650;2023-01-27T03:09:23;101804.59;;;0.65;100.00
18918;BME280;9591;52.742;13.650;2023-01-27T03:12:10;101799.34;;;0.63;100.00
18918;BME280;9591;52.742;13.650;2023-01-27T03:15:07;101811.50;;;0.63;100.00
18918;BME280;9591;52.742;13.650;2023-01-27T03:18:14;101805.25;;;0.56;100.00
18918;BME280;9591;52.742;13.650;2023-01-27T03:21:04;101804.53;;;0.62;100.00
18918;BME280;9591;52.742;13.650;2023-01-27T03:23:51;101801.97;;;0.63;100.00
18918;BME280;9591;52.742;13.650;2023-01-27T03:26:40;101803.81;;;0.68;100.00
18918;BME280;9591;52.742;13.650;2023-01-27T03:29:29;101803.03;;;0.72;100.00
18918;BME280;9591;52.742;13.650;2023-01-27T03:32:34;101808.00;;;0.62;100.00
18918;BME280;9591;52.742;13.650;2023-01-27T03:35:48;101810.38;;;0.53;100.00
18918;BME280;9591;52.742;13.650;2023-01-27T03:38:52;101805.00;;;0.47;100.00
18918;BME280;9591;52.742;13.650;2023-01-27T03:41:56;101804.22;;;0.50;100.00
18918;BME280;9591;52.742;13.650;2023-01-27T03:45:01;101808.66;;;0.54;100.00
18918;BME280;9591;52.742;13.650;2023-01-27T03:48:05;101805.94;;;0.49;100.00
18918;BME280;9591;52.742;13.650;2023-01-27T03:50:56;101806.75;;;0.47;100.00
18918;BME280;9591;52.742;13.650;2023-01-27T03:53:42;101798.59;;;0.35;100.00
18918;BME280;9591;52.742;13.650;2023-01-27T03:56:29;101811.31;;;0.55;100.00
18918;BME280;9591;52.742;13.650;2023-01-27T03:59:16;101804.50;;;0.60;100.00
18918;BME280;9591;52.742;13.650;2023-01-27T04:02:03;101801.72;;;0.54;100.00
18918;BME280;9591;52.742;13.650;2023-01-27T04:05:08;101801.00;;;0.60;100.00
18918;BME280;9591;52.742;13.650;2023-01-27T04:08:13;101794.44;;;0.41;100.00
18918;BME280;9591;52.742;13.650;2023-01-27T04:11:01;101787.97;;;0.27;100.00
18918;BME280;9591;52.742;13.650;2023-01-27T04:14:06;101795.00;;;0.29;100.00
18918;BME280;9591;52.742;13.650;2023-01-27T04:16:56;101788.53;;;0.48;100.00
18918;BME280;9591;52.742;13.650;2023-01-27T04:19:43;101786.84;;;0.50;100.00
18918;BME280;9591;52.742;13.650;2023-01-27T04:22:29;101795.78;;;0.60;100.00
18918;BME280;9591;52.742;13.650;2023-01-27T04:25:17;101794.66;;;0.50;100.00
18918;BME280;9591;52.742;13.650;2023-01-27T04:28:05;101793.06;;;0.55;100.00
18918;BME280;9591;52.742;13.650;2023-01-27T04:30:52;101785.84;;;0.45;100.00
18918;BME280;9591;52.742;13.650;2023-01-27T04:33:39;101797.59;;;0.62;100.00
18918;BME280;9591;52.742;13.650;2023-01-27T04:36:25;101800.06;;;0.58;100.00
18918;BME280;9591;52.742;13.650;2023-01-27T04:39:13;101802.03;;;0.67;100.00
18918;BME280;9591;52.742;13.650;2023-01-27T04:42:03;101807.09;;;0.60;100.00
18918;BME280;9591;52.742;13.650;2023-01-27T04:44:50;101806.78;;;0.48;100.00
18918;BME280;9591;52.742;13.650;2023-01-27T04:47:37;101811.16;;;0.49;100.00
18918;BME280;9591;52.742;13.650;2023-01-27T04:50:23;101811.31;;;0.55;100.00
18918;BME280;9591;52.742;13.650;2023-01-27T04:53:10;101809.47;;;0.51;100.00
18918;BME280;9591;52.742;13.650;2023-01-27T04:56:01;101807.78;;;0.53;100.00
18918;BME280;9591;52.742;13.650;2023-01-27T04:58:50;101815.03;;;0.65;100.00
18918;BME280;9591;52.742;13.650;2023-01-27T05:01:40;101810.63;;;0.62;100.00
18918;BME280;9591;52.742;13.650;2023-01-27T05:04:34;101811.47;;;0.61;100.00
18918;BME280;9591;52.742;13.650;2023-01-27T05:07:21;101817.56;;;0.62;100.00
18918;BME280;9591;52.742;13.650;2023-01-27T05:10:09;101824.19;;;0.49;100.00
18918;BME280;9591;52.742;13.650;2023-01-27T05:12:56;101826.97;;;0.55;100.00
18918;BME280;9591;52.742;13.650;2023-01-27T05:15:45;101822.25;;;0.42;100.00
18918;BME280;9591;52.742;13.650;2023-01-27T05:18:32;101826.03;;;0.53;100.00
18918;BME280;9591;52.742;13.650;2023-01-27T05:21:20;101832.44;;;0.66;100.00
18918;BME280;9591;52.742;13.650;2023-01-27T05:24:09;101835.69;;;0.57;100.00
18918;BME280;9591;52.742;13.650;2023-01-27T05:26:56;101841.28;;;0.71;100.00
18918;BME280;9591;52.742;13.650;2023-01-27T05:29:43;101845.59;;;0.71;100.00
18918;BME280;9591;52.742;13.650;2023-01-27T05:32:31;101848.63;;;0.53;100.00
18918;BME280;9591;52.742;13.650;2023-01-27T05:35:18;101849.53;;;0.55;100.00
18918;BME280;9591;52.742;13.650;2023-01-27T05:38:05;101853.00;;;0.54;100.00
18918;BME280;9591;52.742;13.650;2023-01-27T05:40:54;101853.81;;;0.53;100.00
18918;BME280;9591;52.742;13.650;2023-01-27T05:43:43;101849.63;;;0.58;100.00
18918;BME280;9591;52.742;13.650;2023-01-27T05:46:31;101854.94;;;0.62;100.00
18918;BME280;9591;52.742;13.650;2023-01-27T05:49:19;101857.63;;;0.65;100.00
18918;BME280;9591;52.742;13.650;2023-01-27T05:52:06;101850.66;;;0.64;100.00
18918;BME280;9591;52.742;13.650;2023-01-27T05:54:52;101853.88;;;0.54;100.00
18918;BME280;9591;52.742;13.650;2023-01-27T05:57:39;101859.84;;;0.50;100.00
18918;BME280;9591;52.742;13.650;2023-01-27T06:00:26;101842.72;;;0.60;100.00
18918;BME280;9591;52.742;13.650;2023-01-27T06:03:13;101856.16;;;0.75;100.00
18918;BME280;9591;52.742;13.650;2023-01-27T06:06:01;101854.66;;;0.85;100.00
18918;BME280;9591;52.742;13.650;2023-01-27T06:08:49;101862.09;;;0.70;100.00
18918;BME280;9591;52.742;13.650;2023-01-27T06:11:35;101846.28;;;0.63;100.00
18918;BME280;9591;52.742;13.650;2023-01-27T06:14:22;101858.91;;;0.81;100.00
18918;BME280;9591;52.742;13.650;2023-01-27T06:17:09;101857.13;;;0.79;100.00
18918;BME280;9591;52.742;13.650;2023-01-27T06:19:56;101869.78;;;0.99;100.00
18918;BME280;9591;52.742;13.650;2023-01-27T06:22:44;101869.19;;;0.75;100.00
18918;BME280;9591;52.742;13.650;2023-01-27T06:25:35;101819.66;;;0.42;100.00
18918;BME280;9591;52.742;13.650;2023-01-27T06:28:22;101869.00;;;0.68;100.00
18918;BME280;9591;52.742;13.650;2023-01-27T06:31:16;101878.91;;;0.81;100.00
18918;BME280;9591;52.742;13.650;2023-01-27T06:34:03;101875.56;;;0.88;100.00
18918;BME280;9591;52.742;13.650;2023-01-27T06:36:51;101880.94;;;0.94;100.00
18918;BME280;9591;52.742;13.650;2023-01-27T06:39:40;101874.72;;;0.89;100.00
18918;BME280;9591;52.742;13.650;2023-01-27T06:42:26;101882.50;;;0.86;100.00
18918;BME280;9591;52.742;13.650;2023-01-27T06:45:13;101880.38;;;0.71;100.00
18918;BME280;9591;52.742;13.650;2023-01-27T06:48:00;101885.13;;;0.86;100.00
18918;BME280;9591;52.742;13.650;2023-01-27T06:50:48;101885.97;;;0.85;100.00
18918;BME280;9591;52.742;13.650;2023-01-27T06:53:35;101887.41;;;0.74;100.00
18918;BME280;9591;52.742;13.650;2023-01-27T06:56:24;101899.78;;;0.81;100.00
18918;BME280;9591;52.742;13.650;2023-01-27T06:59:11;101900.06;;;0.93;100.00
18918;BME280;9591;52.742;13.650;2023-01-27T07:01:58;101896.44;;;0.88;100.00
18918;BME280;9591;52.742;13.650;2023-01-27T07:04:45;101899.22;;;0.94;100.00
18918;BME280;9591;52.742;13.650;2023-01-27T07:07:33;101898.84;;;0.79;100.00
18918;BME280;9591;52.742;13.650;2023-01-27T07:10:20;101905.13;;;0.87;100.00
18918;BME280;9591;52.742;13.650;2023-01-27T07:13:11;101905.06;;;0.84;100.00
18918;BME280;9591;52.742;13.650;2023-01-27T07:15:58;101905.13;;;0.87;100.00
18918;BME280;9591;52.742;13.650;2023-01-27T07:18:46;101922.84;;;1.00;100.00
18918;BME280;9591;52.742;13.650;2023-01-27T07:21:33;101928.75;;;0.93;100.00
18918;BME280;9591;52.742;13.650;2023-01-27T07:24:20;101926.09;;;0.91;100.00
18918;BME280;9591;52.742;13.650;2023-01-27T07:27:06;101924.28;;;0.89;100.00
18918;BME280;9591;52.742;13.650;2023-01-27T07:29:54;101932.47;;;1.03;100.00
18918;BME280;9591;52.742;13.650;2023-01-27T07:32:42;101926.69;;;1.14;100.00
18918;BME280;9591;52.742;13.650;2023-01-27T07:35:29;101928.44;;;1.50;100.00
18918;BME280;9591;52.742;13.650;2023-01-27T07:38:16;101926.09;;;1.60;100.00
18918;BME280;9591;52.742;13.650;2023-01-27T07:41:04;101934.72;;;1.58;100.00
18918;BME280;9591;52.742;13.650;2023-01-27T07:43:51;101934.66;;;1.55;100.00
18918;BME280;9591;52.742;13.650;2023-01-27T07:46:39;101940.16;;;1.67;100.00
18918;BME280;9591;52.742;13.650;2023-01-27T07:49:25;101940.38;;;1.78;100.00
18918;BME280;9591;52.742;13.650;2023-01-27T07:52:12;101941.41;;;1.84;100.00
18918;BME280;9591;52.742;13.650;2023-01-27T07:54:59;101933.63;;;1.87;100.00
18918;BME280;9591;52.742;13.650;2023-01-27T07:57:46;101943.34;;;1.93;100.00
18918;BME280;9591;52.742;13.650;2023-01-27T08:00:33;101941.75;;;2.00;100.00
18918;BME280;9591;52.742;13.650;2023-01-27T08:03:23;101946.19;;;2.04;100.00
18918;BME280;9591;52.742;13.650;2023-01-27T08:06:11;101939.88;;;1.94;100.00
18918;BME280;9591;52.742;13.650;2023-01-27T08:08:58;101947.03;;;2.03;100.00
18918;BME280;9591;52.742;13.650;2023-01-27T08:11:45;101942.75;;;2.06;100.00
18918;BME280;9591;52.742;13.650;2023-01-27T08:14:32;101940.56;;;2.26;100.00
18918;BME280;9591;52.742;13.650;2023-01-27T08:17:19;101945.75;;;2.23;100.00
18918;BME280;9591;52.742;13.650;2023-01-27T08:20:09;101941.47;;;2.26;100.00
18918;BME280;9591;52.742;13.650;2023-01-27T08:22:57;101947.78;;;2.38;100.00
18918;BME280;9591;52.742;13.650;2023-01-27T08:25:48;101951.16;;;2.32;100.00
18918;BME280;9591;52.742;13.650;2023-01-27T08:28:36;101945.38;;;2.47;100.00
18918;BME280;9591;52.742;13.650;2023-01-27T08:31:23;101944.28;;;2.37;100.00
18918;BME280;9591;52.742;13.650;2023-01-27T08:34:09;101949.69;;;2.45;100.00
18918;BME280;9591;52.742;13.650;2023-01-27T08:36:58;101946.25;;;2.47;100.00
18918;BME280;9591;52.742;13.650;2023-01-27T08:39:44;101951.41;;;2.44;100.00
18918;BME280;9591;52.742;13.650;2023-01-27T08:42:31;101958.47;;;2.48;100.00
18918;BME280;9591;52.742;13.650;2023-01-27T08:45:18;101959.38;;;2.50;100.00
18918;BME280;9591;52.742;13.650;2023-01-27T08:48:05;101951.66;;;2.56;100.00
18918;BME280;9591;52.742;13.650;2023-01-27T08:50:51;101958.56;;;2.53;100.00
18918;BME280;9591;52.742;13.650;2023-01-27T08:53:40;101965.56;;;2.54;100.00
18918;BME280;9591;52.742;13.650;2023-01-27T08:56:26;101963.06;;;2.61;100.00
18918;BME280;9591;52.742;13.650;2023-01-27T08:59:15;101969.09;;;2.56;100.00
18918;BME280;9591;52.742;13.650;2023-01-27T09:02:02;101974.56;;;2.70;100.00
18918;BME280;9591;52.742;13.650;2023-01-27T09:04:49;101971.75;;;2.60;100.00
18918;BME280;9591;52.742;13.650;2023-01-27T09:07:35;101976.34;;;2.71;100.00
18918;BME280;9591;52.742;13.650;2023-01-27T09:10:23;101979.75;;;2.67;100.00
18918;BME280;9591;52.742;13.650;2023-01-27T09:13:10;101984.22;;;2.72;100.00
18918;BME280;9591;52.742;13.650;2023-01-27T09:15:57;101984.31;;;2.77;100.00
18918;BME280;9591;52.742;13.650;2023-01-27T09:18:45;101986.94;;;2.78;100.00
18918;BME280;9591;52.742;13.650;2023-01-27T09:21:32;101989.50;;;2.75;100.00
18918;BME280;9591;52.742;13.650;2023-01-27T09:24:19;101998.16;;;2.73;100.00
18918;BME280;9591;52.742;13.650;2023-01-27T09:27:07;101994.06;;;2.85;100.00
18918;BME280;9591;52.742;13.650;2023-01-27T09:29:53;101995.47;;;2.68;100.00
18918;BME280;9591;52.742;13.650;2023-01-27T09:32:41;101989.38;;;2.69;100.00
18918;BME280;9591;52.742;13.650;2023-01-27T09:35:34;101995.63;;;2.76;100.00
18918;BME280;9591;52.742;13.650;2023-01-27T09:38:22;102007.13;;;2.84;100.00
18918;BME280;9591;52.742;13.650;2023-01-27T09:41:24;102004.22;;;2.70;100.00
18918;BME280;9591;52.742;13.650;2023-01-27T09:47:50;102015.28;;;2.99;100.00
18918;BME280;9591;52.742;13.650;2023-01-27T09:50:44;102017.94;;;3.02;100.00
18918;BME280;9591;52.742;13.650;2023-01-27T09:53:54;102012.53;;;2.93;100.00
18918;BME280;9591;52.742;13.650;2023-01-27T09:56:52;102016.19;;;3.01;100.00
18918;BME280;9591;52.742;13.650;2023-01-27T09:59:51;102013.44;;;2.95;100.00
18918;BME280;9591;52.742;13.650;2023-01-27T10:03:17;102019.47;;;2.91;100.00
18918;BME280;9591;52.742;13.650;2023-01-27T10:06:34;102029.22;;;2.98;100.00
18918;BME280;9591;52.742;13.650;2023-01-27T10:12:53;102024.94;;;3.03;100.00
18918;BME280;9591;52.742;13.650;2023-01-27T10:15:59;102024.94;;;3.03;100.00
18918;BME280;9591;52.742;13.650;2023-01-27T10:19:00;102029.09;;;2.92;100.00
18918;BME280;9591;52.742;13.650;2023-01-27T10:22:03;102021.47;;;3.04;100.00
18918;BME280;9591;52.742;13.650;2023-01-27T10:25:02;102024.06;;;3.03;100.00
18918;BME280;9591;52.742;13.650;2023-01-27T10:27:55;102030.13;;;3.00;100.00
18918;BME280;9591;52.742;13.650;2023-01-27T10:30:50;102030.97;;;2.99;100.00
18918;BME280;9591;52.742;13.650;2023-01-27T10:33:50;102034.66;;;3.09;100.00
18918;BME280;9591;52.742;13.650;2023-01-27T10:36:43;102028.41;;;3.02;100.00
18918;BME280;9591;52.742;13.650;2023-01-27T10:39:35;102035.63;;;3.14;100.00
18918;BME280;9591;52.742;13.650;2023-01-27T10:42:34;101997.41;;;2.78;100.00
18918;BME280;9591;52.742;13.650;2023-01-27T10:45:27;102031.81;;;2.98;100.00
18918;BME280;9591;52.742;13.650;2023-01-27T10:48:24;102029.22;;;2.98;100.00
18918;BME280;9591;52.742;13.650;2023-01-27T10:51:16;102036.44;;;3.11;100.00
18918;BME280;9591;52.742;13.650;2023-01-27T10:54:11;102037.19;;;3.04;100.00
18918;BME280;9591;52.742;13.650;2023-01-27T10:57:03;102033.72;;;3.05;100.00
18918;BME280;9591;52.742;13.650;2023-01-27T10:59:56;102038.88;;;3.02;100.00
18918;BME280;9591;52.742;13.650;2023-01-27T11:03:12;102040.72;;;3.06;100.00
18918;BME280;9591;52.742;13.650;2023-01-27T11:06:06;102041.78;;;3.16;100.00
18918;BME280;9591;52.742;13.650;2023-01-27T11:09:03;102046.84;;;3.08;100.00
18918;BME280;9591;52.742;13.650;2023-01-27T11:11:55;102041.59;;;3.07;100.00
18918;BME280;9591;52.742;13.650;2023-01-27T11:14:45;102042.53;;;3.10;100.00
18918;BME280;9591;52.742;13.650;2023-01-27T11:17:36;102048.47;;;3.02;100.00
18918;BME280;9591;52.742;13.650;2023-01-27T11:20:28;102048.56;;;3.06;100.00
18918;BME280;9591;52.742;13.650;2023-01-27T11:23:17;102045.97;;;3.08;100.00
18918;BME280;9591;52.742;13.650;2023-01-27T11:26:14;102046.91;;;3.11;100.00
18918;BME280;9591;52.742;13.650;2023-01-27T11:29:18;102044.28;;;3.10;100.00
18918;BME280;9591;52.742;13.650;2023-01-27T11:32:12;102046.25;;;3.21;100.00
18918;BME280;9591;52.742;13.650;2023-01-27T11:35:07;102016.25;;;3.04;100.00
18918;BME280;9591;52.742;13.650;2023-01-27T11:37:54;102034.72;;;3.12;100.00
18918;BME280;9591;52.742;13.650;2023-01-27T11:40:58;102037.38;;;3.15;100.00
18918;BME280;9591;52.742;13.650;2023-01-27T11:43:46;102036.56;;;3.17;100.00
18918;BME280;9591;52.742;13.650;2023-01-27T11:46:35;102038.63;;;3.34;100.00
18918;BME280;9591;52.742;13.650;2023-01-27T11:49:25;102036.84;;;3.33;100.00
18918;BME280;9591;52.742;13.650;2023-01-27T11:52:16;102039.56;;;3.39;100.00
18918;BME280;9591;52.742;13.650;2023-01-27T11:55:10;102040.53;;;3.44;100.00
18918;BME280;9591;52.742;13.650;2023-01-27T11:58:11;102043.88;;;3.35;100.00
18918;BME280;9591;52.742;13.650;2023-01-27T12:01:03;102050.69;;;3.25;100.00
18918;BME280;9591;52.742;13.650;2023-01-27T12:04:00;102044.53;;;3.23;100.00
18918;BME280;9591;52.742;13.650;2023-01-27T12:06:53;102046.25;;;3.23;100.00
18918;BME280;9591;52.742;13.650;2023-01-27T12:09:47;102047.06;;;3.19;100.00
18918;BME280;9591;52.742;13.650;2023-01-27T12:12:36;102048.81;;;3.20;100.00
18918;BME280;9591;52.742;13.650;2023-01-27T12:15:26;102044.44;;;3.19;100.00
18918;BME280;9591;52.742;13.650;2023-01-27T12:18:14;102041.94;;;3.25;100.00
18918;BME280;9591;52.742;13.650;2023-01-27T12:21:05;102037.47;;;3.19;100.00
18918;BME280;9591;52.742;13.650;2023-01-27T12:23:56;102037.28;;;3.10;100.00
18918;BME280;9591;52.742;13.650;2023-01-27T12:26:45;101998.41;;;2.85;100.00
18918;BME280;9591;52.742;13.650;2023-01-27T12:29:40;102039.88;;;3.09;100.00
18918;BME280;9591;52.742;13.650;2023-01-27T12:32:39;102039.19;;;3.17;100.00
18918;BME280;9591;52.742;13.650;2023-01-27T12:35:31;102038.25;;;3.14;100.00
18918;BME280;9591;52.742;13.650;2023-01-27T12:38:22;102046.22;;;3.20;100.00
18918;BME280;9591;52.742;13.650;2023-01-27T12:41:11;102041.56;;;3.05;100.00
18918;BME280;9591;52.742;13.650;2023-01-27T12:44:17;102044.31;;;3.11;100.00
18918;BME280;9591;52.742;13.650;2023-01-27T12:47:19;102047.94;;;3.19;100.00
18918;BME280;9591;52.742;13.650;2023-01-27T12:50:20;102034.72;;;3.12;100.00
18918;BME280;9591;52.742;13.650;2023-01-27T12:53:13;102030.41;;;3.15;100.00
18918;BME280;9591;52.742;13.650;2023-01-27T12:56:08;101787.88;;;1.71;100.00
18918;BME280;9591;52.742;13.650;2023-01-27T12:58:59;102042.56;;;3.12;100.00
18918;BME280;9591;52.742;13.650;2023-01-27T13:02:00;102042.69;;;3.18;100.00
18918;BME280;9591;52.742;13.650;2023-01-27T13:04:54;102052.88;;;3.04;100.00
18918;BME280;9591;52.742;13.650;2023-01-27T13:07:51;102056.50;;;3.11;100.00
18918;BME280;9591;52.742;13.650;2023-01-27T13:10:49;102051.28;;;3.11;100.00
18918;BME280;9591;52.742;13.650;2023-01-27T13:13:48;102026.69;;;3.03;100.00
18918;BME280;9591;52.742;13.650;2023-01-27T13:16:38;102053.19;;;3.19;100.00
18918;BME280;9591;52.742;13.650;2023-01-27T13:19:34;102058.44;;;3.21;100.00
18918;BME280;9591;52.742;13.650;2023-01-27T13:22:37;102053.06;;;3.13;100.00
18918;BME280;9591;52.742;13.650;2023-01-27T13:25:33;102054.88;;;3.17;100.00
18918;BME280;9591;52.742;13.650;2023-01-27T13:28:30;102054.19;;;3.26;100.00
18918;BME280;9591;52.742;13.650;2023-01-27T13:31:42;102046.22;;;3.20;100.00
18918;BME280;9591;52.742;13.650;2023-01-27T13:34:39;102053.44;;;3.33;100.00
18918;BME280;9591;52.742;13.650;2023-01-27T13:37:32;102056.03;;;3.32;100.00
18918;BME280;9591;52.742;13.650;2023-01-27T13:40:28;102054.19;;;3.26;100.00
18918;BME280;9591;52.742;13.650;2023-01-27T13:43:21;102056.81;;;3.27;100.00
18918;BME280;9591;52.742;13.650;2023-01-27T13:46:16;102057.59;;;3.22;100.00
18918;BME280;9591;52.742;13.650;2023-01-27T13:49:30;102056.09;;;3.35;100.00
18918;BME280;9591;52.742;13.650;2023-01-27T13:52:18;102051.81;;;3.40;100.00
18918;BME280;9591;52.742;13.650;2023-01-27T13:55:11;102058.03;;;3.45;100.00
18918;BME280;9591;52.742;13.650;2023-01-27T13:58:04;102049.06;;;3.32;100.00
18918;BME280;9591;52.742;13.650;2023-01-27T14:01:01;102060.53;;;3.39;100.00
18918;BME280;9591;52.742;13.650;2023-01-27T14:04:15;102054.59;;;3.50;100.00
18918;BME280;9591;52.742;13.650;2023-01-27T14:07:20;101938.22;;;2.85;100.00
18918;BME280;9591;52.742;13.650;2023-01-27T14:10:24;102051.22;;;3.57;100.00
18918;BME280;9591;52.742;13.650;2023-01-27T14:13:33;102070.56;;;3.64;100.00
18918;BME280;9591;52.742;13.650;2023-01-27T14:16:35;102070.50;;;3.61;100.00
18918;BME280;9591;52.742;13.650;2023-01-27T14:19:37;102071.38;;;3.61;100.00
18918;BME280;9591;52.742;13.650;2023-01-27T14:22:34;102072.09;;;3.53;100.00
18918;BME280;9591;52.742;13.650;2023-01-27T14:25:31;102075.69;;;3.58;100.00
18918;BME280;9591;52.742;13.650;2023-01-27T14:28:29;102028.16;;;3.35;100.00
18918;BME280;9591;52.742;13.650;2023-01-27T14:31:23;102075.53;;;3.49;100.00
18918;BME280;9591;52.742;13.650;2023-01-27T14:34:31;102077.41;;;3.56;100.00
18918;BME280;9591;52.742;13.650;2023-01-27T14:37:27;102078.13;;;3.46;100.00
18918;BME280;9591;52.742;13.650;2023-01-27T14:40:26;102079.78;;;3.41;100.00
18918;BME280;9591;52.742;13.650;2023-01-27T14:43:32;102070.22;;;3.43;100.00
18918;BME280;9591;52.742;13.650;2023-01-27T14:46:49;102072.84;;;3.44;100.00
18918;BME280;9591;52.742;13.650;2023-01-27T14:49:50;102084.34;;;3.54;100.00
18918;BME280;9591;52.742;13.650;2023-01-27T14:52:41;102085.03;;;3.42;100.00
18918;BME280;9591;52.742;13.650;2023-01-27T14:55:39;102086.78;;;3.42;100.00
18918;BME280;9591;52.742;13.650;2023-01-27T14:58:39;102086.72;;;3.39;100.00
18918;BME280;9591;52.742;13.650;2023-01-27T15:01:33;102087.44;;;3.30;100.00
18918;BME280;9591;52.742;13.650;2023-01-27T15:04:34;102094.34;;;3.26;100.00